Terminal Aerodrome Forecast
Issued by NWS

Home | Current Version | Previous Version | Text Only | Print | Product List | Glossary On
Versions: 1 2 3 4 5 6 7 8 9 10 11 12 13 14 15 16 17 18 19 20 21
000
FTUS42 KTBW 232337
TAFPIE
TAF
KPIE 232337Z 2400/2424 29008KT P6SM VCSH SCT025 BKN050
     FM240100 VRB04KT P6SM FEW030 SCT100 SCT250
     FM241400 09006KT P6SM SCT020 BKN250
     FM241900 04006KT P6SM VCTS SCT025CB BKN050
     FM242100 32008KT P6SM VCTS FEW025CB BKN080=

USA.gov is the U.S. government's official web portal to all federal, state and local government web resources and services.